createdAt,value
2018-05-08T00:01:37.502Z,3.10
2018-05-08T00:04:11.894Z,3.43
2018-05-08T00:06:46.584Z,2.93
2018-05-08T00:09:21.854Z,3.10
2018-05-08T00:11:56.434Z,2.90
2018-05-08T00:14:31.142Z,2.73
2018-05-08T00:17:05.677Z,3.00
2018-05-08T00:19:40.961Z,3.40
2018-05-08T00:22:15.627Z,2.90
2018-05-08T00:24:50.138Z,3.03
2018-05-08T00:27:25.586Z,3.43
2018-05-08T00:30:00.501Z,3.07
2018-05-08T00:32:35.504Z,3.30
2018-05-08T00:35:09.987Z,2.80
2018-05-08T00:37:44.843Z,3.57
2018-05-08T00:40:19.398Z,3.07
2018-05-08T00:42:55.891Z,3.00
2018-05-08T00:45:31.068Z,3.53
2018-05-08T00:48:05.746Z,3.37
2018-05-08T00:50:40.477Z,3.70
2018-05-08T00:53:15.234Z,3.00
2018-05-08T00:55:49.808Z,3.37
2018-05-08T00:58:24.466Z,3.50
2018-05-08T01:00:58.925Z,3.43
2018-05-08T01:03:33.500Z,3.83
2018-05-08T01:06:08.175Z,3.90
2018-05-08T01:08:43.366Z,4.10
2018-05-08T01:11:17.939Z,3.70
2018-05-08T01:13:52.835Z,3.73
2018-05-08T01:16:27.464Z,3.83
2018-05-08T01:19:03.342Z,3.50
2018-05-08T01:21:37.791Z,3.50
2018-05-08T01:24:14.653Z,3.43
2018-05-08T01:26:51.503Z,3.67
2018-05-08T01:29:26.132Z,4.10
2018-05-08T01:32:01.382Z,3.40
2018-05-08T01:34:36.532Z,3.50
2018-05-08T01:37:11.430Z,3.70
2018-05-08T01:39:46.998Z,4.17
2018-05-08T01:42:22.799Z,3.67
2018-05-08T01:44:57.824Z,3.80
2018-05-08T01:47:32.236Z,4.47
2018-05-08T01:50:06.875Z,3.90
2018-05-08T01:52:42.081Z,3.80
2018-05-08T01:55:16.525Z,3.40
2018-05-08T01:57:51.058Z,3.80
2018-05-08T02:00:26.307Z,3.83
2018-05-08T02:03:01.071Z,3.17
2018-05-08T02:05:36.133Z,3.87
2018-05-08T02:08:11.150Z,4.53
2018-05-08T02:10:45.968Z,3.60
2018-05-08T02:13:20.548Z,4.07
2018-05-08T02:15:55.232Z,3.70
2018-05-08T02:18:29.746Z,3.43
2018-05-08T02:21:05.216Z,3.73
2018-05-08T02:23:40.191Z,4.17
2018-05-08T02:26:15.010Z,4.40
2018-05-08T02:28:49.473Z,3.90
2018-05-08T02:31:24.150Z,4.53
2018-05-08T02:33:58.867Z,4.50
2018-05-08T02:36:33.502Z,4.40
2018-05-08T02:39:09.381Z,4.23
2018-05-08T02:41:43.881Z,3.93
2018-05-08T02:44:18.603Z,4.43
2018-05-08T02:46:53.087Z,4.00
2018-05-08T02:49:27.645Z,4.43
2018-05-08T02:52:02.793Z,3.90
2018-05-08T02:54:37.559Z,4.50
2018-05-08T02:57:12.290Z,4.27
2018-05-08T02:59:46.932Z,3.97
2018-05-08T03:02:21.737Z,4.20
2018-05-08T03:04:57.870Z,4.63
2018-05-08T03:07:33.224Z,4.07
2018-05-08T03:10:07.822Z,4.27
2018-05-08T03:12:43.301Z,5.27
2018-05-08T03:15:19.027Z,5.03
2018-05-08T03:17:53.634Z,5.60
2018-05-08T03:20:28.391Z,4.80
2018-05-08T03:23:04.145Z,4.40
2018-05-08T03:25:38.875Z,4.40
2018-05-08T03:28:13.798Z,5.27
2018-05-08T03:30:48.294Z,4.70
2018-05-08T03:33:24.264Z,4.80
2018-05-08T03:35:59.916Z,5.33
2018-05-08T03:38:34.633Z,4.90
2018-05-08T03:41:09.392Z,5.17
2018-05-08T03:43:44.654Z,5.20
2018-05-08T03:46:19.071Z,5.50
2018-05-08T03:48:53.906Z,5.13
2018-05-08T03:51:29.027Z,4.70
2018-05-08T03:54:03.769Z,5.53
2018-05-08T03:56:38.363Z,5.33
2018-05-08T03:59:13.171Z,6.10
2018-05-08T04:04:04.460Z,5.03
2018-05-08T04:06:46.028Z,5.47
2018-05-08T04:09:20.721Z,5.47
2018-05-08T04:11:55.291Z,5.63
2018-05-08T04:14:29.812Z,5.80
2018-05-08T04:17:04.519Z,5.53
2018-05-08T04:19:41.625Z,5.13
2018-05-08T04:22:17.646Z,5.50
2018-05-08T04:24:52.188Z,5.23
2018-05-08T04:27:27.496Z,6.10
2018-05-08T04:30:02.877Z,10.63
2018-05-08T04:32:37.397Z,7.37
2018-05-08T04:35:14.075Z,7.13
2018-05-08T04:37:48.583Z,7.40
2018-05-08T04:40:23.567Z,7.10
2018-05-08T04:42:58.973Z,5.93
2018-05-08T04:45:33.483Z,6.23
2018-05-08T04:48:14.540Z,6.33
2018-05-08T04:50:53.748Z,5.83
2018-05-08T04:53:34.181Z,6.30
2018-05-08T04:56:13.216Z,5.70
2018-05-08T04:58:48.908Z,9.53
2018-05-08T05:01:23.657Z,5.90
2018-05-08T05:03:58.310Z,5.63
2018-05-08T05:06:35.373Z,5.80
2018-05-08T05:09:33.166Z,5.67
2018-05-08T05:12:19.056Z,5.20
2018-05-08T05:15:03.127Z,5.50
2018-05-08T05:20:40.007Z,5.70
2018-05-08T05:23:21.541Z,6.70
2018-05-08T05:26:02.183Z,7.47
2018-05-08T05:28:37.766Z,6.67
2018-05-08T05:31:12.288Z,6.10
2018-05-08T05:33:47.793Z,6.10
2018-05-08T05:36:24.216Z,5.87
2018-05-08T05:45:03.015Z,5.73
2018-05-08T05:47:46.670Z,7.43
2018-05-08T05:50:30.665Z,6.10
2018-05-08T05:53:09.672Z,6.33
2018-05-08T05:55:45.923Z,5.80
2018-05-08T05:58:20.331Z,5.70
2018-05-08T06:00:54.776Z,5.73
2018-05-08T06:03:34.831Z,5.60
2018-05-08T06:06:15.672Z,5.33
2018-05-08T06:08:50.464Z,5.70
2018-05-08T06:11:26.052Z,5.50
2018-05-08T06:14:00.592Z,4.93
2018-05-08T06:16:35.011Z,5.47
2018-05-08T06:19:09.680Z,6.30
2018-05-08T06:21:44.336Z,6.57
2018-05-08T06:24:19.511Z,5.93
2018-05-08T06:26:54.808Z,5.33
2018-05-08T06:29:36.620Z,5.93
2018-05-08T06:32:20.380Z,5.90
2018-05-08T06:35:00.194Z,5.43
2018-05-08T06:37:34.950Z,6.00
2018-05-08T06:40:09.645Z,5.70
2018-05-08T06:42:44.233Z,5.30
2018-05-08T06:45:18.806Z,5.33
2018-05-08T06:47:53.384Z,7.63
2018-05-08T06:50:27.963Z,6.00
2018-05-08T06:53:06.647Z,5.40
2018-05-08T06:55:41.408Z,5.07
2018-05-08T06:58:15.905Z,5.07
2018-05-08T07:00:51.164Z,4.70
2018-05-08T07:03:26.119Z,4.40
2018-05-08T07:06:01.533Z,4.10
2018-05-08T07:08:36.779Z,3.40
2018-05-08T07:11:13.494Z,3.93
2018-05-08T07:13:48.882Z,3.43
2018-05-08T07:16:23.499Z,3.37
2018-05-08T07:19:00.068Z,3.07
2018-05-08T07:21:34.551Z,3.57
2018-05-08T07:24:13.781Z,3.60
2018-05-08T07:26:48.551Z,3.90
2018-05-08T07:29:23.219Z,3.73
2018-05-08T07:31:58.847Z,3.60
2018-05-08T07:34:33.332Z,3.13
2018-05-08T07:37:08.903Z,3.67
2018-05-08T07:39:48.229Z,3.00
2018-05-08T07:42:32.131Z,3.57
2018-05-08T07:45:11.693Z,3.07
2018-05-08T07:47:46.287Z,3.20
2018-05-08T07:50:20.824Z,3.50
2018-05-08T07:52:55.337Z,3.83
2018-05-08T07:55:29.882Z,3.87
2018-05-08T07:58:05.405Z,3.00
2018-05-08T08:00:39.872Z,3.03
2018-05-08T08:03:14.470Z,2.47
2018-05-08T08:05:49.015Z,2.47
2018-05-08T08:08:24.371Z,2.53
2018-05-08T08:10:59.450Z,2.63
2018-05-08T08:13:33.937Z,2.00
2018-05-08T08:16:08.503Z,2.57
2018-05-08T08:18:43.335Z,2.30
2018-05-08T08:21:17.916Z,2.33
2018-05-08T08:23:52.502Z,2.37
2018-05-08T08:26:27.031Z,2.50
2018-05-08T08:29:02.718Z,2.37
2018-05-08T08:31:38.071Z,2.03
2018-05-08T08:34:12.478Z,2.30
2018-05-08T08:36:47.620Z,2.30
2018-05-08T08:39:22.851Z,2.30
2018-05-08T08:41:58.303Z,2.60
2018-05-08T08:44:33.146Z,2.40
2018-05-08T08:47:09.916Z,2.27
2018-05-08T08:49:45.345Z,4.77
2018-05-08T08:52:19.805Z,2.53
2018-05-08T08:54:55.117Z,2.20
2018-05-08T08:57:30.001Z,2.27
2018-05-08T09:00:04.787Z,3.03
2018-05-08T09:02:39.739Z,2.63
2018-05-08T09:08:26.815Z,2.80
2018-05-08T09:11:08.461Z,2.77
2018-05-08T09:13:43.059Z,2.57
2018-05-08T09:16:18.218Z,2.30
2018-05-08T09:18:52.818Z,2.07
2018-05-08T09:21:27.673Z,3.23
2018-05-08T09:24:02.971Z,3.57
2018-05-08T09:26:37.563Z,3.27
2018-05-08T09:29:12.128Z,2.73
2018-05-08T09:31:47.123Z,2.33
2018-05-08T09:34:21.580Z,2.33
2018-05-08T09:36:56.270Z,2.30
2018-05-08T09:39:31.013Z,2.53
2018-05-08T09:42:06.310Z,2.00
2018-05-08T09:47:21.073Z,2.63
2018-05-08T09:49:55.651Z,2.03
2018-05-08T09:52:31.767Z,2.43
2018-05-08T09:55:10.942Z,2.57
2018-05-08T09:57:50.280Z,2.57
2018-05-08T10:00:25.047Z,2.77
2018-05-08T10:02:59.662Z,2.77
2018-05-08T10:08:37.438Z,2.60
2018-05-08T10:11:12.286Z,2.20
2018-05-08T10:13:47.450Z,3.47
2018-05-08T10:16:22.268Z,2.50
2018-05-08T10:18:57.143Z,2.60
2018-05-08T10:21:32.738Z,2.50
2018-05-08T10:24:15.328Z,2.60
2018-05-08T10:27:34.646Z,2.40
2018-05-08T10:30:09.307Z,1.80
2018-05-08T10:32:44.301Z,2.10
2018-05-08T10:35:19.320Z,2.73
2018-05-08T10:37:54.074Z,2.13
2018-05-08T10:40:29.271Z,2.20
2018-05-08T10:43:04.061Z,2.30
2018-05-08T10:45:39.083Z,2.30
2018-05-08T10:48:13.994Z,1.90
2018-05-08T10:50:52.455Z,2.30
2018-05-08T10:53:27.374Z,2.43
2018-05-08T10:56:03.231Z,2.27
2018-05-08T10:58:45.478Z,2.10
2018-05-08T11:01:22.043Z,2.00
2018-05-08T11:03:56.942Z,2.23
2018-05-08T11:06:31.676Z,2.60
2018-05-08T11:09:13.021Z,2.20
2018-05-08T11:11:47.930Z,2.40
2018-05-08T11:14:23.035Z,1.80
2018-05-08T11:16:59.752Z,2.40
2018-05-08T11:19:34.338Z,2.17
2018-05-08T11:22:09.797Z,2.08
2018-05-08T11:25:09.421Z,2.42
2018-05-08T11:27:50.510Z,1.80
2018-05-08T11:30:28.485Z,2.20
2018-05-08T11:33:04.141Z,1.92
2018-05-08T11:35:39.027Z,1.90
2018-05-08T11:38:16.419Z,1.70
2018-05-08T11:40:55.285Z,2.00
2018-05-08T11:43:31.090Z,2.10
2018-05-08T11:46:10.066Z,1.73
2018-05-08T11:48:55.877Z,1.92
2018-05-08T11:51:36.113Z,2.00
2018-05-08T11:54:11.010Z,1.95
2018-05-08T11:56:45.906Z,2.08
2018-05-08T11:59:20.627Z,1.73
2018-05-08T12:01:55.238Z,1.60
2018-05-08T12:04:30.359Z,2.03
2018-05-08T12:07:05.153Z,1.77
2018-05-08T12:09:39.720Z,2.22
2018-05-08T12:12:16.521Z,2.10
2018-05-08T12:14:53.338Z,1.70
2018-05-08T12:17:28.057Z,2.00
2018-05-08T12:20:04.565Z,1.92
2018-05-08T12:22:39.370Z,2.45
2018-05-08T12:25:14.228Z,1.73
2018-05-08T12:27:49.672Z,1.77
2018-05-08T12:30:24.036Z,1.83
2018-05-08T12:32:58.774Z,2.00
2018-05-08T12:35:33.477Z,2.00
2018-05-08T12:38:08.072Z,1.80
2018-05-08T12:40:42.917Z,1.83
2018-05-08T12:43:18.513Z,2.50
2018-05-08T12:45:53.158Z,1.95
2018-05-08T12:48:27.868Z,2.17
2018-05-08T12:51:03.393Z,2.10
2018-05-08T12:53:39.953Z,2.35
2018-05-08T12:56:17.838Z,2.00
2018-05-08T12:58:52.648Z,2.90
2018-05-08T13:01:28.140Z,2.08
2018-05-08T13:04:03.083Z,2.78
2018-05-08T13:06:49.018Z,2.17
2018-05-08T13:09:26.054Z,2.80
2018-05-08T13:12:00.969Z,2.03
2018-05-08T13:15:22.704Z,1.80
2018-05-08T13:18:01.419Z,1.90
2018-05-08T13:20:36.705Z,2.37
2018-05-08T13:23:11.163Z,1.90
2018-05-08T13:25:51.685Z,2.00
2018-05-08T13:28:27.579Z,2.00
2018-05-08T13:31:09.302Z,2.20
2018-05-08T13:33:45.503Z,3.20
2018-05-08T13:36:20.854Z,1.90
2018-05-08T13:38:59.568Z,1.75
2018-05-08T13:41:35.425Z,2.03
2018-05-08T13:44:10.195Z,1.87
2018-05-08T13:46:44.631Z,2.28
2018-05-08T13:49:19.504Z,1.62
2018-05-08T13:51:55.013Z,1.83
2018-05-08T13:57:28.657Z,1.65
2018-05-08T14:00:15.884Z,1.95
2018-05-08T14:02:54.333Z,1.65
2018-05-08T14:05:29.658Z,1.75
2018-05-08T14:08:07.233Z,2.30
2018-05-08T14:10:50.251Z,2.15
2018-05-08T14:16:14.001Z,1.77
2018-05-08T14:18:51.052Z,1.77
2018-05-08T14:21:30.046Z,1.85
2018-05-08T14:24:05.359Z,2.10
2018-05-08T14:26:56.031Z,2.60
2018-05-08T14:29:35.848Z,2.10
2018-05-08T14:32:11.543Z,2.05
2018-05-08T14:34:47.048Z,1.50
2018-05-08T14:37:22.722Z,1.95
2018-05-08T14:39:58.672Z,1.87
2018-05-08T14:42:41.217Z,1.52
2018-05-08T14:45:16.436Z,1.55
2018-05-08T14:47:51.123Z,1.90
2018-05-08T14:50:26.124Z,1.52
2018-05-08T14:55:17.619Z,1.67
2018-05-08T14:57:52.816Z,3.25
2018-05-08T15:00:28.039Z,2.37
2018-05-08T15:03:05.190Z,1.73
2018-05-08T15:05:42.071Z,1.92
2018-05-08T15:08:38.029Z,1.75
2018-05-08T15:11:16.914Z,1.87
2018-05-08T15:13:54.607Z,7.30
2018-05-08T15:16:33.315Z,2.20
2018-05-08T15:19:09.693Z,2.60
2018-05-08T15:21:46.106Z,2.53
2018-05-08T15:24:20.834Z,2.50
2018-05-08T15:27:18.471Z,1.90
2018-05-08T15:29:54.600Z,2.22
2018-05-08T15:32:59.416Z,1.80
2018-05-08T15:35:34.271Z,6.50
2018-05-08T15:38:39.053Z,2.00
2018-05-08T15:41:13.900Z,2.00
2018-05-08T15:43:50.000Z,2.67
2018-05-08T15:46:26.347Z,1.77
2018-05-08T15:49:02.503Z,2.00
2018-05-08T15:51:38.301Z,1.87
2018-05-08T15:54:16.587Z,2.03
2018-05-08T15:56:57.590Z,1.83
2018-05-08T15:59:33.433Z,2.00
2018-05-08T16:02:10.748Z,2.07
2018-05-08T16:11:02.840Z,2.20
2018-05-08T16:13:44.109Z,2.47
2018-05-08T16:16:31.742Z,2.60
2018-05-08T16:19:31.918Z,1.77
2018-05-08T16:22:12.912Z,1.70
2018-05-08T16:24:49.349Z,2.10
2018-05-08T16:27:36.636Z,1.97
2018-05-08T16:30:13.111Z,1.90
2018-05-08T16:32:48.324Z,2.00
2018-05-08T16:35:23.359Z,1.80
2018-05-08T16:37:59.505Z,2.50
2018-05-08T16:40:34.269Z,2.53
2018-05-08T16:43:10.991Z,2.03
2018-05-08T16:45:45.624Z,1.90
2018-05-08T16:51:31.595Z,1.90
2018-05-08T16:56:48.944Z,1.73
2018-05-08T16:59:25.712Z,2.33
2018-05-08T17:02:01.233Z,2.07
2018-05-08T17:04:36.033Z,2.07
2018-05-08T17:07:23.852Z,2.00
2018-05-08T17:13:22.800Z,2.23
2018-05-08T17:16:06.929Z,2.50
2018-05-08T17:18:45.386Z,2.30
2018-05-08T17:21:20.141Z,2.10
2018-05-08T17:23:55.183Z,2.23
2018-05-08T17:26:29.949Z,2.17
2018-05-08T17:29:04.494Z,2.40
2018-05-08T17:31:39.449Z,2.37
2018-05-08T17:34:14.162Z,1.83
2018-05-08T17:37:00.109Z,2.00
2018-05-08T17:39:44.404Z,2.03
2018-05-08T17:42:21.757Z,2.47
2018-05-08T17:45:05.400Z,2.87
2018-05-08T17:51:25.763Z,1.90
2018-05-08T17:54:02.038Z,1.93
2018-05-08T18:03:05.513Z,1.90
2018-05-08T18:05:42.179Z,2.13
2018-05-08T18:08:24.904Z,2.27
2018-05-08T18:11:10.557Z,3.00
2018-05-08T18:13:46.015Z,2.47
2018-05-08T18:16:20.488Z,2.17
2018-05-08T18:18:55.347Z,2.30
2018-05-08T18:21:30.683Z,2.00
2018-05-08T18:26:55.398Z,2.13
2018-05-08T18:29:30.105Z,1.93
2018-05-08T18:32:05.260Z,2.70
2018-05-08T18:37:19.052Z,2.87
2018-05-08T18:39:53.588Z,2.43
2018-05-08T18:42:28.149Z,3.50
2018-05-08T18:45:02.988Z,3.00
2018-05-08T18:47:37.718Z,2.03
2018-05-08T18:50:13.176Z,2.23
2018-05-08T18:52:48.817Z,2.93
2018-05-08T18:55:27.406Z,2.40
2018-05-08T18:58:02.881Z,4.70
2018-05-08T19:00:45.440Z,4.13
2018-05-08T19:03:19.979Z,3.63
2018-05-08T19:05:54.580Z,3.33
2018-05-08T19:08:29.588Z,3.03
2018-05-08T19:11:10.151Z,3.70
2018-05-08T19:13:45.020Z,4.30
2018-05-08T19:16:19.626Z,6.90
2018-05-08T19:18:58.840Z,4.07
2018-05-08T19:21:33.460Z,3.80
2018-05-08T19:24:12.517Z,3.73
2018-05-08T19:26:48.001Z,3.43
2018-05-08T19:31:31.151Z,3.37
2018-05-08T19:34:05.985Z,2.93
2018-05-08T19:38:48.397Z,3.10
2018-05-08T19:41:24.121Z,2.83
2018-05-08T19:43:58.805Z,7.07
2018-05-08T19:46:34.172Z,16.17
2018-05-08T19:49:10.839Z,5.93
2018-05-08T19:51:45.480Z,2.90
2018-05-08T19:54:20.364Z,3.57
2018-05-08T19:57:08.245Z,3.10
2018-05-08T19:59:42.912Z,3.33
2018-05-08T20:02:18.207Z,8.77
2018-05-08T20:04:53.528Z,10.87
2018-05-08T20:07:29.312Z,7.17
2018-05-08T20:10:04.265Z,4.93
2018-05-08T20:12:38.951Z,3.70
2018-05-08T20:15:14.701Z,3.57
2018-05-08T20:17:49.458Z,10.37
2018-05-08T20:20:25.015Z,9.30
2018-05-08T20:22:59.722Z,5.33
2018-05-08T20:25:34.379Z,6.17
2018-05-08T20:28:10.124Z,4.90
2018-05-08T20:30:45.675Z,3.70
2018-05-08T20:33:20.266Z,3.10
2018-05-08T20:35:54.797Z,3.70
2018-05-08T20:38:29.476Z,3.73
2018-05-08T20:41:05.154Z,3.70
2018-05-08T20:43:40.526Z,3.20
2018-05-08T20:46:15.952Z,3.50
2018-05-08T20:48:50.700Z,3.80
2018-05-08T20:51:25.769Z,3.40
2018-05-08T20:54:00.280Z,3.50
2018-05-08T20:56:34.880Z,3.60
2018-05-08T20:59:09.487Z,2.80
2018-05-08T21:01:44.628Z,3.00
2018-05-08T21:04:19.181Z,3.00
2018-05-08T21:06:56.440Z,3.33
2018-05-08T21:09:31.719Z,3.07
2018-05-08T21:12:06.454Z,3.00
2018-05-08T21:14:40.941Z,3.20
2018-05-08T21:17:15.473Z,2.80
2018-05-08T21:19:50.128Z,3.10
2018-05-08T21:22:24.727Z,2.93
2018-05-08T21:25:00.240Z,2.93
2018-05-08T21:27:39.391Z,2.70
2018-05-08T21:31:19.112Z,3.07
2018-05-08T21:33:55.314Z,3.17
2018-05-08T21:36:29.840Z,2.70
2018-05-08T21:39:05.362Z,2.70
2018-05-08T21:41:40.813Z,2.50
2018-05-08T21:44:15.459Z,2.47
2018-05-08T21:46:50.503Z,2.50
2018-05-08T21:49:25.036Z,2.40
2018-05-08T21:51:59.694Z,2.70
2018-05-08T21:54:34.339Z,2.30
2018-05-08T21:57:09.156Z,2.43
2018-05-08T21:59:43.807Z,2.73
2018-05-08T22:02:18.461Z,2.30
2018-05-08T22:04:53.015Z,2.10
2018-05-08T22:07:27.639Z,2.30
2018-05-08T22:10:02.153Z,2.20
2018-05-08T22:12:37.563Z,2.10
2018-05-08T22:15:12.119Z,2.50
2018-05-08T22:17:46.823Z,2.00
2018-05-08T22:20:30.563Z,1.67
2018-05-08T22:23:05.668Z,2.57
2018-05-08T22:25:40.388Z,2.33
2018-05-08T22:28:17.213Z,2.07
2018-05-08T22:30:51.920Z,2.67
2018-05-08T22:33:26.536Z,2.30
2018-05-08T22:36:02.048Z,2.43
2018-05-08T22:38:36.667Z,2.47
2018-05-08T22:41:11.146Z,2.50
2018-05-08T22:43:46.449Z,2.63
2018-05-08T22:46:21.072Z,2.20
2018-05-08T22:48:55.741Z,2.30
2018-05-08T22:51:31.108Z,2.63
2018-05-08T22:54:05.747Z,2.53
2018-05-08T22:56:40.155Z,1.93
2018-05-08T22:59:15.566Z,2.27
2018-05-08T23:01:50.983Z,2.10
2018-05-08T23:04:26.707Z,2.80
2018-05-08T23:07:02.565Z,2.47
2018-05-08T23:09:37.320Z,2.23
2018-05-08T23:12:12.188Z,2.40
2018-05-08T23:14:46.642Z,2.50
2018-05-08T23:17:21.297Z,2.43
2018-05-08T23:19:55.749Z,2.57
2018-05-08T23:22:30.116Z,2.80
2018-05-08T23:25:04.804Z,2.63
2018-05-08T23:27:39.424Z,2.30
2018-05-08T23:30:13.828Z,2.60
2018-05-08T23:32:48.539Z,2.17
2018-05-08T23:35:23.250Z,2.50
2018-05-08T23:37:57.989Z,2.13
2018-05-08T23:40:32.639Z,2.40
2018-05-08T23:43:07.912Z,2.57
2018-05-08T23:45:42.495Z,2.90
2018-05-08T23:48:17.242Z,2.10
2018-05-08T23:50:51.724Z,2.77
2018-05-08T23:53:26.516Z,2.63
2018-05-08T23:56:01.272Z,2.73
2018-05-08T23:58:35.790Z,2.70
